createdAt,value
2023-03-17T00:01:44.843Z,6.44
2023-03-17T00:04:13.048Z,6.47
2023-03-17T00:06:42.548Z,6.44
2023-03-17T00:09:14.707Z,6.43
2023-03-17T00:11:43.064Z,6.42
2023-03-17T00:14:10.843Z,6.41
2023-03-17T00:16:40.590Z,6.37
2023-03-17T00:19:08.441Z,6.33
2023-03-17T00:21:36.691Z,6.30
2023-03-17T00:24:07.353Z,6.29
2023-03-17T00:26:35.126Z,6.27
2023-03-17T00:29:02.865Z,6.26
2023-03-17T00:31:31.599Z,6.28
2023-03-17T00:34:00.503Z,6.31
2023-03-17T00:36:30.700Z,6.31
2023-03-17T00:38:58.887Z,6.33
2023-03-17T00:41:29.551Z,6.35
2023-03-17T00:43:57.687Z,6.38
2023-03-17T00:46:28.756Z,6.40
2023-03-17T00:48:56.737Z,6.42
2023-03-17T00:51:24.547Z,6.42
2023-03-17T00:53:52.806Z,6.44
2023-03-17T00:56:21.812Z,6.44
2023-03-17T00:58:50.890Z,6.44
2023-03-17T01:01:19.858Z,6.45
2023-03-17T01:03:49.648Z,6.42
2023-03-17T01:06:17.925Z,6.43
2023-03-17T01:08:46.570Z,6.40
2023-03-17T01:11:17.773Z,6.38
2023-03-17T01:13:45.741Z,6.36
2023-03-17T01:16:15.561Z,6.36
2023-03-17T01:18:44.010Z,6.36
2023-03-17T01:21:12.648Z,6.34
2023-03-17T01:23:40.398Z,6.33
2023-03-17T01:26:08.064Z,6.35
2023-03-17T01:28:36.065Z,6.35
2023-03-17T01:31:05.025Z,6.37
2023-03-17T01:33:35.176Z,6.36
2023-03-17T01:36:03.088Z,6.36
2023-03-17T01:38:31.266Z,6.35
2023-03-17T01:40:59.562Z,6.35
2023-03-17T01:43:29.549Z,6.36
2023-03-17T01:46:20.756Z,6.34
2023-03-17T01:48:54.222Z,6.36
2023-03-17T01:51:27.517Z,6.33
2023-03-17T01:53:56.218Z,6.31
2023-03-17T01:56:24.699Z,6.30
2023-03-17T01:58:56.145Z,6.31
2023-03-17T02:01:30.697Z,6.31
2023-03-17T02:04:00.884Z,6.31
2023-03-17T02:06:29.534Z,6.28
2023-03-17T02:08:57.427Z,6.27
2023-03-17T02:11:25.321Z,6.25
2023-03-17T02:13:53.661Z,6.22
2023-03-17T02:16:22.346Z,6.18
2023-03-17T02:18:50.082Z,6.14
2023-03-17T02:21:38.313Z,6.11
2023-03-17T02:24:10.719Z,6.10
2023-03-17T02:26:39.542Z,6.09
2023-03-17T02:29:07.376Z,6.07
2023-03-17T02:31:35.783Z,6.07
2023-03-17T02:34:03.703Z,6.06
2023-03-17T02:36:32.836Z,6.05
2023-03-17T02:39:01.045Z,6.01
2023-03-17T02:41:29.324Z,6.00
2023-03-17T02:43:57.106Z,6.00
2023-03-17T02:46:24.915Z,5.97
2023-03-17T02:48:52.787Z,5.95
2023-03-17T02:51:20.585Z,5.92
2023-03-17T02:53:49.669Z,5.91
2023-03-17T02:56:17.420Z,5.88
2023-03-17T02:58:45.487Z,5.84
2023-03-17T03:01:14.151Z,5.78
2023-03-17T03:03:41.956Z,5.76
2023-03-17T03:06:09.796Z,5.74
2023-03-17T03:08:37.805Z,5.69
2023-03-17T03:11:07.121Z,5.67
2023-03-17T03:13:34.988Z,5.66
2023-03-17T03:16:02.680Z,5.61
2023-03-17T03:18:30.565Z,5.59
2023-03-17T03:20:58.251Z,5.58
2023-03-17T03:23:26.003Z,5.57
2023-03-17T03:25:53.766Z,5.57
2023-03-17T03:28:23.063Z,5.52
2023-03-17T03:30:51.145Z,5.48
2023-03-17T03:33:19.110Z,5.46
2023-03-17T03:35:46.866Z,5.41
2023-03-17T03:38:14.694Z,5.35
2023-03-17T03:40:42.414Z,5.34
2023-03-17T03:43:21.867Z,5.31
2023-03-17T03:45:52.543Z,5.28
2023-03-17T03:48:20.475Z,5.25
2023-03-17T03:50:48.359Z,5.25
2023-03-17T03:53:16.471Z,5.22
2023-03-17T03:55:44.282Z,5.19
2023-03-17T03:58:12.336Z,5.17
2023-03-17T04:00:40.655Z,5.13
2023-03-17T04:03:09.841Z,5.11
2023-03-17T04:05:37.734Z,5.06
2023-03-17T04:08:06.720Z,5.00
2023-03-17T04:10:35.082Z,4.97
2023-03-17T04:13:03.001Z,4.96
2023-03-17T04:15:30.732Z,4.97
2023-03-17T04:17:58.497Z,5.00
2023-03-17T04:20:27.756Z,4.98
2023-03-17T04:22:55.532Z,4.97
2023-03-17T04:25:23.307Z,4.97
2023-03-17T04:27:51.047Z,4.95
2023-03-17T04:30:19.116Z,4.94
2023-03-17T04:32:47.626Z,4.94
2023-03-17T04:35:17.120Z,4.93
2023-03-17T04:37:46.736Z,4.90
2023-03-17T04:40:15.607Z,4.89
2023-03-17T04:42:43.385Z,4.87
2023-03-17T04:45:14.072Z,4.86
2023-03-17T04:47:42.127Z,4.84
2023-03-17T04:50:11.447Z,4.82
2023-03-17T04:52:39.203Z,4.78
2023-03-17T04:55:09.475Z,4.77
2023-03-17T04:57:37.815Z,4.77
2023-03-17T05:00:07.274Z,4.78
2023-03-17T05:02:35.360Z,4.75
2023-03-17T05:05:03.168Z,4.74
2023-03-17T05:07:33.928Z,4.71
2023-03-17T05:10:02.128Z,4.72
2023-03-17T05:12:31.199Z,4.70
2023-03-17T05:14:58.900Z,4.69
2023-03-17T05:17:26.579Z,4.69
2023-03-17T05:19:54.299Z,4.66
2023-03-17T05:22:22.054Z,4.64
2023-03-17T05:24:49.749Z,4.65
2023-03-17T05:27:17.479Z,4.66
2023-03-17T05:29:46.574Z,4.63
2023-03-17T05:32:14.464Z,4.61
2023-03-17T05:34:42.173Z,4.62
2023-03-17T05:37:10.278Z,4.62
2023-03-17T05:39:38.409Z,4.59
2023-03-17T05:42:06.380Z,4.58
2023-03-17T05:44:34.225Z,4.53
2023-03-17T05:47:03.292Z,4.49
2023-03-17T05:49:31.507Z,4.47
2023-03-17T05:51:59.261Z,4.49
2023-03-17T05:54:27.676Z,4.51
2023-03-17T05:56:55.474Z,4.50
2023-03-17T05:59:23.324Z,4.50
2023-03-17T06:01:51.278Z,4.46
2023-03-17T06:04:20.376Z,4.41
2023-03-17T06:06:48.609Z,4.37
2023-03-17T06:09:18.101Z,4.33
2023-03-17T06:11:45.929Z,4.26
2023-03-17T06:14:14.601Z,4.23
2023-03-17T06:16:42.333Z,4.18
2023-03-17T06:19:10.271Z,4.14
2023-03-17T06:21:39.500Z,4.13
2023-03-17T06:24:08.437Z,4.17
2023-03-17T06:26:37.199Z,4.22
2023-03-17T06:29:05.409Z,4.25
2023-03-17T06:31:33.118Z,4.34
2023-03-17T06:34:00.906Z,4.41
2023-03-17T06:36:28.586Z,4.47
2023-03-17T06:38:57.868Z,4.55
2023-03-17T06:41:25.715Z,4.69
2023-03-17T06:43:53.512Z,4.83
2023-03-17T06:46:21.625Z,4.95
2023-03-17T06:48:49.442Z,5.09
2023-03-17T06:51:17.222Z,5.23
2023-03-17T06:53:44.980Z,5.38
2023-03-17T06:56:28.806Z,5.55
2023-03-17T06:58:57.760Z,5.75
2023-03-17T07:01:25.766Z,5.91
2023-03-17T07:03:53.485Z,6.10
2023-03-17T07:06:23.377Z,6.30
2023-03-17T07:08:52.377Z,6.45
2023-03-17T07:11:23.581Z,6.65
2023-03-17T07:13:51.994Z,6.86
2023-03-17T07:16:21.043Z,6.99
2023-03-17T07:18:50.616Z,7.11
2023-03-17T07:21:18.623Z,7.23
2023-03-17T07:23:46.411Z,7.29
2023-03-17T07:26:14.581Z,7.33
2023-03-17T07:28:44.623Z,7.36
2023-03-17T07:31:14.335Z,7.37
2023-03-17T07:33:42.556Z,7.41
2023-03-17T07:36:10.712Z,7.46
2023-03-17T07:38:38.566Z,7.52
2023-03-17T07:41:09.910Z,7.65
2023-03-17T07:43:38.581Z,7.78
2023-03-17T07:46:08.573Z,7.87
2023-03-17T07:48:40.840Z,8.01
2023-03-17T07:51:11.890Z,8.12
2023-03-17T07:53:39.706Z,8.26
2023-03-17T07:56:08.078Z,8.35
2023-03-17T07:58:36.121Z,8.49
2023-03-17T08:01:04.992Z,8.61
2023-03-17T08:03:34.410Z,8.81
2023-03-17T08:06:08.618Z,9.01
2023-03-17T08:08:37.011Z,9.24
2023-03-17T08:11:07.639Z,9.39
2023-03-17T08:13:35.827Z,9.53
2023-03-17T08:16:03.699Z,9.70
2023-03-17T08:18:32.028Z,9.88
2023-03-17T08:21:02.150Z,10.08
2023-03-17T08:23:30.047Z,10.27
2023-03-17T08:25:58.895Z,10.46
2023-03-17T08:28:27.139Z,10.68
2023-03-17T08:30:55.857Z,10.87
2023-03-17T08:33:23.780Z,11.03
2023-03-17T08:35:51.652Z,11.21
2023-03-17T08:38:20.786Z,11.44
2023-03-17T08:40:50.606Z,11.58
2023-03-17T08:43:18.677Z,11.70
2023-03-17T08:45:46.555Z,11.70
2023-03-17T08:48:14.382Z,11.70
2023-03-17T08:50:42.266Z,11.70
2023-03-17T08:53:10.361Z,11.66
2023-03-17T08:55:39.953Z,11.70
2023-03-17T08:58:07.766Z,11.76
2023-03-17T09:00:36.240Z,11.83
2023-03-17T09:03:04.168Z,11.89
2023-03-17T09:05:32.687Z,11.91
2023-03-17T09:08:00.959Z,11.80
2023-03-17T09:10:29.220Z,11.72
2023-03-17T09:13:03.162Z,11.66
2023-03-17T09:15:31.408Z,11.60
2023-03-17T09:17:59.306Z,11.68
2023-03-17T09:20:27.279Z,11.71
2023-03-17T09:22:56.437Z,11.65
2023-03-17T09:25:24.701Z,11.56
2023-03-17T09:27:52.700Z,11.57
2023-03-17T09:30:22.102Z,11.67
2023-03-17T09:32:49.942Z,11.84
2023-03-17T09:35:17.936Z,12.04
2023-03-17T09:37:45.623Z,12.22
2023-03-17T09:40:17.585Z,12.40
2023-03-17T09:42:58.196Z,12.64
2023-03-17T09:45:34.660Z,12.82
2023-03-17T09:48:23.754Z,12.95
2023-03-17T09:50:57.579Z,13.11
2023-03-17T09:53:34.277Z,13.24
2023-03-17T09:56:06.861Z,13.41
2023-03-17T09:58:35.608Z,13.48
2023-03-17T10:01:06.403Z,13.53
2023-03-17T10:03:35.229Z,13.60
2023-03-17T10:06:18.671Z,13.65
2023-03-17T10:08:55.067Z,13.74
2023-03-17T10:11:34.026Z,13.81
2023-03-17T10:14:04.527Z,13.92
2023-03-17T10:16:41.505Z,14.00
2023-03-17T10:19:22.373Z,14.13
2023-03-17T10:21:54.764Z,14.24
2023-03-17T10:24:24.507Z,14.30
2023-03-17T10:26:55.247Z,14.32
2023-03-17T10:29:24.865Z,14.44
2023-03-17T10:31:58.292Z,14.62
2023-03-17T10:34:29.752Z,14.65
2023-03-17T10:37:02.582Z,14.67
2023-03-17T10:39:32.717Z,14.65
2023-03-17T10:42:10.075Z,14.67
2023-03-17T10:44:43.885Z,14.65
2023-03-17T10:47:31.578Z,14.65
2023-03-17T10:50:04.767Z,14.64
2023-03-17T10:52:39.605Z,14.71
2023-03-17T10:55:10.640Z,14.76
2023-03-17T10:57:39.821Z,14.72
2023-03-17T11:00:19.873Z,14.79
2023-03-17T11:02:55.964Z,14.80
2023-03-17T11:05:26.534Z,14.76
2023-03-17T11:08:07.738Z,14.75
2023-03-17T11:10:38.583Z,14.79
2023-03-17T11:13:06.714Z,14.73
2023-03-17T11:15:37.522Z,14.67
2023-03-17T11:18:15.760Z,14.58
2023-03-17T11:20:51.182Z,14.60
2023-03-17T11:23:39.574Z,14.61
2023-03-17T11:26:18.943Z,14.57
2023-03-17T11:28:52.945Z,14.57
2023-03-17T11:31:27.984Z,14.54
2023-03-17T11:34:05.369Z,14.55
2023-03-17T11:36:46.045Z,14.48
2023-03-17T11:39:17.199Z,14.49
2023-03-17T11:42:06.924Z,14.45
2023-03-17T11:45:18.204Z,14.43
2023-03-17T11:48:00.960Z,14.44
2023-03-17T11:50:38.359Z,14.47
2023-03-17T11:53:18.829Z,14.46
2023-03-17T11:55:50.172Z,14.47
2023-03-17T11:58:28.587Z,14.46
2023-03-17T12:01:00.406Z,14.50
2023-03-17T12:03:34.430Z,14.52
2023-03-17T12:06:08.666Z,14.47
2023-03-17T12:08:40.927Z,14.46
2023-03-17T12:11:12.765Z,14.45
2023-03-17T12:13:45.552Z,14.47
2023-03-17T12:16:19.299Z,14.47
2023-03-17T12:18:55.825Z,14.47
2023-03-17T12:21:30.993Z,14.47
2023-03-17T12:24:03.035Z,14.50
2023-03-17T12:26:36.209Z,14.51
2023-03-17T12:29:10.487Z,14.51
2023-03-17T12:31:42.525Z,14.50
2023-03-17T12:34:20.377Z,14.48
2023-03-17T12:36:50.717Z,14.48
2023-03-17T12:39:22.944Z,14.49
2023-03-17T12:42:16.612Z,14.53
2023-03-17T12:45:15.974Z,14.53
2023-03-17T12:47:58.554Z,14.58
2023-03-17T12:50:45.934Z,14.59
2023-03-17T12:53:27.356Z,14.60
2023-03-17T12:55:58.938Z,14.61
2023-03-17T12:58:33.600Z,14.62
2023-03-17T13:01:10.747Z,14.65
2023-03-17T13:03:47.772Z,14.61
2023-03-17T13:06:21.258Z,14.62
2023-03-17T13:08:51.976Z,14.59
2023-03-17T13:11:27.312Z,14.57
2023-03-17T13:14:12.326Z,14.57
2023-03-17T13:16:41.799Z,14.57
2023-03-17T13:19:18.801Z,14.56
2023-03-17T13:21:51.848Z,14.59
2023-03-17T13:24:43.488Z,14.59
2023-03-17T13:27:13.901Z,14.62
2023-03-17T13:29:47.717Z,14.60
2023-03-17T13:32:39.729Z,14.61
2023-03-17T13:35:38.742Z,14.59
2023-03-17T13:38:30.509Z,14.60
2023-03-17T13:41:17.199Z,14.60
2023-03-17T13:44:03.151Z,14.61
2023-03-17T13:46:40.929Z,14.56
2023-03-17T13:49:22.460Z,14.57
2023-03-17T13:51:59.825Z,14.51
2023-03-17T13:54:34.312Z,14.51
2023-03-17T13:57:26.264Z,14.47
2023-03-17T14:00:17.725Z,14.47
2023-03-17T14:02:49.809Z,14.42
2023-03-17T14:05:25.439Z,14.39
2023-03-17T14:07:57.520Z,14.37
2023-03-17T14:10:27.418Z,14.36
2023-03-17T14:13:01.907Z,14.35
2023-03-17T14:15:33.827Z,14.37
2023-03-17T14:18:05.945Z,14.44
2023-03-17T14:20:33.853Z,14.42
2023-03-17T14:23:04.035Z,14.40
2023-03-17T14:25:34.955Z,14.38
2023-03-17T14:28:09.420Z,14.38
2023-03-17T14:30:38.686Z,14.37
2023-03-17T14:33:14.559Z,14.38
2023-03-17T14:35:44.294Z,14.39
2023-03-17T14:38:20.850Z,14.38
2023-03-17T14:40:49.086Z,14.38
2023-03-17T14:43:18.463Z,14.37
2023-03-17T14:45:51.370Z,14.33
2023-03-17T14:48:26.591Z,14.31
2023-03-17T14:50:56.463Z,14.32
2023-03-17T14:53:26.827Z,14.31
2023-03-17T14:55:54.788Z,14.29
2023-03-17T14:58:26.316Z,14.29
2023-03-17T15:00:58.357Z,14.28
2023-03-17T15:03:31.564Z,14.28
2023-03-17T15:06:08.635Z,14.26
2023-03-17T15:08:46.969Z,14.23
2023-03-17T15:11:21.346Z,14.24
2023-03-17T15:13:54.005Z,14.17
2023-03-17T15:16:23.874Z,14.14
2023-03-17T15:18:59.129Z,14.12
2023-03-17T15:21:33.653Z,14.13
2023-03-17T15:24:06.207Z,14.11
2023-03-17T15:26:34.034Z,14.08
2023-03-17T15:29:03.196Z,14.04
2023-03-17T15:31:31.075Z,14.01
2023-03-17T15:33:59.585Z,14.02
2023-03-17T15:36:32.764Z,14.01
2023-03-17T15:39:01.585Z,13.99
2023-03-17T15:41:29.693Z,13.97
2023-03-17T15:43:57.543Z,13.95
2023-03-17T15:46:31.009Z,13.92
2023-03-17T15:48:59.257Z,13.89
2023-03-17T15:51:27.748Z,13.89
2023-03-17T15:53:55.462Z,13.88
2023-03-17T15:56:23.286Z,13.87
2023-03-17T15:58:52.686Z,13.86
2023-03-17T16:01:21.483Z,13.85
2023-03-17T16:03:51.079Z,13.84
2023-03-17T16:06:21.441Z,13.83
2023-03-17T16:08:50.075Z,13.82
2023-03-17T16:11:19.520Z,13.76
2023-03-17T16:13:48.653Z,13.74
2023-03-17T16:16:21.421Z,13.72
2023-03-17T16:18:52.602Z,13.70
2023-03-17T16:21:21.340Z,13.66
2023-03-17T16:23:50.428Z,13.62
2023-03-17T16:26:18.568Z,13.57
2023-03-17T16:28:47.809Z,13.54
2023-03-17T16:31:25.203Z,13.47
2023-03-17T16:33:55.224Z,13.43
2023-03-17T16:36:25.534Z,13.41
2023-03-17T16:38:53.474Z,13.35
2023-03-17T16:41:24.087Z,13.32
2023-03-17T16:43:55.266Z,13.29
2023-03-17T16:46:23.725Z,13.28
2023-03-17T16:48:51.909Z,13.23
2023-03-17T16:51:21.200Z,13.22
2023-03-17T16:53:49.462Z,13.18
2023-03-17T16:56:19.535Z,13.15
2023-03-17T16:58:48.246Z,13.12
2023-03-17T17:01:19.302Z,13.09
2023-03-17T17:03:47.834Z,13.06
2023-03-17T17:06:16.274Z,13.04
2023-03-17T17:08:47.253Z,13.02
2023-03-17T17:11:16.077Z,13.01
2023-03-17T17:13:44.926Z,12.98
2023-03-17T17:16:22.059Z,12.95
2023-03-17T17:18:50.405Z,12.93
2023-03-17T17:21:18.274Z,12.91
2023-03-17T17:23:47.834Z,12.88
2023-03-17T17:26:15.945Z,12.86
2023-03-17T17:28:43.801Z,12.84
2023-03-17T17:31:12.293Z,12.82
2023-03-17T17:33:40.704Z,12.79
2023-03-17T17:36:14.606Z,12.77
2023-03-17T17:38:44.506Z,12.73
2023-03-17T17:41:17.022Z,12.71
2023-03-17T17:43:46.174Z,12.68
2023-03-17T17:46:17.612Z,12.66
2023-03-17T17:48:45.889Z,12.63
2023-03-17T17:51:13.805Z,12.62
2023-03-17T17:53:42.010Z,12.58
2023-03-17T17:56:15.815Z,12.53
2023-03-17T17:58:44.171Z,12.51
2023-03-17T18:01:13.599Z,12.46
2023-03-17T18:03:42.962Z,12.42
2023-03-17T18:06:11.727Z,12.40
2023-03-17T18:08:40.507Z,12.35
2023-03-17T18:11:08.732Z,12.34
2023-03-17T18:13:39.040Z,12.29
2023-03-17T18:16:09.974Z,12.28
2023-03-17T18:18:40.681Z,12.25
2023-03-17T18:21:08.551Z,12.23
2023-03-17T18:23:37.344Z,12.22
2023-03-17T18:26:06.673Z,12.21
2023-03-17T18:28:34.904Z,12.21
2023-03-17T18:31:09.596Z,12.21
2023-03-17T18:33:37.776Z,12.20
2023-03-17T18:36:06.797Z,12.21
2023-03-17T18:38:34.782Z,12.22
2023-03-17T18:41:04.083Z,12.21
2023-03-17T18:43:31.930Z,12.22
2023-03-17T18:46:00.129Z,12.20
2023-03-17T18:48:29.622Z,12.21
2023-03-17T18:50:57.742Z,12.18
2023-03-17T18:53:26.116Z,12.14
2023-03-17T18:55:54.042Z,12.09
2023-03-17T18:58:23.530Z,12.03
2023-03-17T19:00:53.318Z,11.97
2023-03-17T19:03:21.397Z,11.89
2023-03-17T19:05:51.613Z,11.81
2023-03-17T19:08:19.781Z,11.73
2023-03-17T19:10:48.277Z,11.67
2023-03-17T19:13:17.034Z,11.61
2023-03-17T19:15:44.817Z,11.55
2023-03-17T19:18:12.602Z,11.50
2023-03-17T19:20:40.903Z,11.47
2023-03-17T19:23:10.126Z,11.41
2023-03-17T19:25:38.083Z,11.36
2023-03-17T19:28:06.419Z,11.32
2023-03-17T19:30:34.868Z,11.29
2023-03-17T19:33:03.057Z,11.24
2023-03-17T19:35:30.922Z,11.21
2023-03-17T19:37:59.010Z,11.20
2023-03-17T19:40:28.388Z,11.16
2023-03-17T19:42:56.269Z,11.16
2023-03-17T19:45:26.132Z,11.16
2023-03-17T19:47:54.290Z,11.15
2023-03-17T19:50:22.132Z,11.10
2023-03-17T19:52:53.020Z,11.05
2023-03-17T19:55:21.726Z,11.03
2023-03-17T19:57:51.732Z,11.04
2023-03-17T20:00:20.966Z,11.05
2023-03-17T20:02:52.114Z,11.03
2023-03-17T20:05:20.019Z,10.95
2023-03-17T20:07:48.390Z,10.87
2023-03-17T20:10:16.160Z,10.83
2023-03-17T20:12:45.935Z,10.78
2023-03-17T20:15:16.464Z,10.72
2023-03-17T20:17:44.293Z,10.66
2023-03-17T20:20:14.517Z,10.63
2023-03-17T20:22:43.668Z,10.57
2023-03-17T20:25:12.492Z,10.53
2023-03-17T20:27:43.577Z,10.50
2023-03-17T20:30:13.152Z,10.46
2023-03-17T20:32:42.547Z,10.44
2023-03-17T20:35:11.130Z,10.42
2023-03-17T20:37:39.517Z,10.39
2023-03-17T20:40:09.934Z,10.35
2023-03-17T20:42:37.774Z,10.33
2023-03-17T20:45:07.463Z,10.34
2023-03-17T20:47:35.535Z,10.35
2023-03-17T20:50:06.282Z,10.33
2023-03-17T20:52:34.099Z,10.30
2023-03-17T20:55:02.565Z,10.30
2023-03-17T20:57:30.377Z,10.25
2023-03-17T20:59:58.240Z,10.19
2023-03-17T21:02:26.445Z,10.15
2023-03-17T21:04:54.249Z,10.13
2023-03-17T21:07:23.613Z,10.11
2023-03-17T21:09:52.020Z,10.07
2023-03-17T21:12:21.382Z,10.06
2023-03-17T21:14:49.349Z,10.07
2023-03-17T21:17:18.370Z,10.05
2023-03-17T21:19:47.413Z,10.05
2023-03-17T21:22:16.056Z,10.06
2023-03-17T21:24:45.342Z,10.06
2023-03-17T21:27:13.843Z,10.10
2023-03-17T21:29:41.687Z,10.11
2023-03-17T21:32:09.689Z,10.11
2023-03-17T21:34:38.091Z,10.11
2023-03-17T21:37:06.181Z,10.11
2023-03-17T21:39:34.064Z,10.09
2023-03-17T21:42:03.793Z,10.09
2023-03-17T21:44:32.414Z,10.09
2023-03-17T21:47:02.591Z,10.09
2023-03-17T21:49:30.404Z,10.04
2023-03-17T21:51:58.250Z,10.03
2023-03-17T21:54:26.098Z,10.02
2023-03-17T21:56:53.986Z,10.02
2023-03-17T21:59:23.600Z,10.01
2023-03-17T22:01:53.073Z,10.00
2023-03-17T22:04:21.153Z,9.97
2023-03-17T22:06:49.006Z,9.95
2023-03-17T22:09:19.134Z,9.92
2023-03-17T22:11:47.059Z,9.86
2023-03-17T22:14:19.888Z,9.88
2023-03-17T22:16:49.798Z,9.84
2023-03-17T22:19:20.983Z,9.83
2023-03-17T22:21:49.073Z,9.82
2023-03-17T22:24:17.339Z,9.80
2023-03-17T22:26:45.239Z,9.81
2023-03-17T22:29:13.593Z,9.82
2023-03-17T22:31:41.984Z,9.82
2023-03-17T22:34:11.262Z,9.86
2023-03-17T22:36:39.038Z,9.88
2023-03-17T22:39:08.836Z,9.90
2023-03-17T22:41:36.743Z,9.91
2023-03-17T22:44:05.591Z,9.94
2023-03-17T22:46:33.412Z,9.96
2023-03-17T22:49:01.218Z,9.95
2023-03-17T22:51:30.594Z,9.95
2023-03-17T22:53:58.804Z,9.98
2023-03-17T22:56:26.823Z,9.95
2023-03-17T22:58:55.757Z,9.95
2023-03-17T23:01:25.817Z,9.94
2023-03-17T23:03:54.319Z,9.94
2023-03-17T23:06:22.579Z,9.92
2023-03-17T23:08:52.203Z,9.91
2023-03-17T23:11:22.226Z,9.92
2023-03-17T23:13:51.420Z,9.90
2023-03-17T23:16:20.277Z,9.89
2023-03-17T23:18:48.117Z,9.88
2023-03-17T23:21:21.921Z,9.85
2023-03-17T23:23:51.459Z,9.85
2023-03-17T23:26:19.361Z,9.84
2023-03-17T23:28:47.604Z,9.84
2023-03-17T23:31:15.979Z,9.83
2023-03-17T23:33:43.903Z,9.83
2023-03-17T23:36:14.064Z,9.82
2023-03-17T23:38:42.739Z,9.82
2023-03-17T23:41:13.484Z,9.82
2023-03-17T23:43:41.756Z,9.81
2023-03-17T23:46:09.618Z,9.79
2023-03-17T23:48:38.058Z,9.76
2023-03-17T23:51:08.030Z,9.75
2023-03-17T23:53:35.798Z,9.77
2023-03-17T23:56:05.438Z,9.76
2023-03-17T23:58:34.896Z,9.76
